Time;durP1;ratioP1;P1;durP2;ratioP2;P2;SDS_P1;SDS_P2;PMS_P1;PMS_P2;Temp;Humidity;BMP_temperature;BMP_pressure;BME280_temperature;BME280_humidity;BME280_pressure;Samples;Min_cycle;Max_cycle;Signal;HPM_P1;HPM_P2
2023/09/15 00:00:48;;;;;;;12.25;2.45;;;;;;;19.01;65.05;101945.72;5028938;27;98250;-74
2023/09/15 00:03:15;;;;;;;5.10;2.65;;;;;;;19.18;64.31;101955.56;5031099;27;99948;-74
2023/09/15 00:05:42;;;;;;;4.72;2.38;;;;;;;19.18;64.27;101949.31;5030319;27;99458;-74
2023/09/15 00:08:09;;;;;;;6.45;2.47;;;;;;;19.20;64.56;101953.66;5031541;27;98188;-74
2023/09/15 00:10:39;;;;;;;6.95;2.60;;;;;;;19.14;64.90;101955.81;5030616;27;96884;-75
2023/09/15 00:13:06;;;;;;;5.25;2.60;;;;;;;19.28;64.29;101956.81;5027297;27;96897;-74
2023/09/15 00:15:34;;;;;;;5.43;2.92;;;;;;;19.15;65.09;101958.41;5027358;27;100667;-74
2023/09/15 00:18:01;;;;;;;5.07;2.80;;;;;;;19.15;65.02;101963.78;5031230;27;99234;-74
2023/09/15 00:20:27;;;;;;;2.80;2.35;;;;;;;19.03;65.67;101957.22;5035685;27;97349;-74
2023/09/15 00:22:56;;;;;;;6.63;2.38;;;;;;;19.26;64.79;101950.66;5037442;27;96932;-74
2023/09/15 00:25:25;;;;;;;5.32;2.55;;;;;;;18.99;66.15;101955.66;5034961;27;99916;-74
2023/09/15 00:27:54;;;;;;;4.43;2.40;;;;;;;18.94;66.06;101959.50;5032492;27;98949;-74
2023/09/15 00:30:22;;;;;;;6.53;2.70;;;;;;;18.96;66.45;101963.00;5031817;27;96651;-74
2023/09/15 00:32:51;;;;;;;7.60;2.60;;;;;;;18.84;66.82;101971.66;5039949;27;96852;-74
2023/09/15 00:35:20;;;;;;;4.57;2.50;;;;;;;19.02;66.41;101962.66;5032315;27;101004;-74
2023/09/15 00:37:48;;;;;;;4.97;2.45;;;;;;;18.96;67.15;101971.91;5032759;27;98844;-75
2023/09/15 00:40:15;;;;;;;3.78;2.10;;;;;;;18.84;67.57;101966.28;5037644;27;97484;-74
2023/09/15 00:42:42;;;;;;;5.63;2.47;;;;;;;18.83;67.91;101972.59;5035665;27;96860;-74
2023/09/15 00:45:14;;;;;;;4.10;2.22;;;;;;;18.84;67.63;101963.63;5035846;27;98982;-74
2023/09/15 00:47:43;;;;;;;6.13;1.95;;;;;;;18.90;67.35;101968.66;5032209;27;98770;-74
2023/09/15 00:50:13;;;;;;;3.30;2.10;;;;;;;18.76;67.68;101960.44;5030910;27;96828;-75
2023/09/15 00:52:40;;;;;;;3.22;2.30;;;;;;;18.72;67.95;101962.41;5031297;27;96901;-74
2023/09/15 00:55:08;;;;;;;8.43;2.40;;;;;;;18.77;68.01;101959.50;5031174;27;101914;-74
2023/09/15 00:57:37;;;;;;;3.92;2.30;;;;;;;18.80;68.25;101962.88;5029521;27;99099;-74
2023/09/15 01:00:12;;;;;;;6.32;2.58;;;;;;;18.61;68.96;101957.59;5031894;27;96681;-74
2023/09/15 01:02:39;;;;;;;6.00;2.28;;;;;;;18.81;68.28;101956.59;5027536;27;100024;-74
2023/09/15 01:05:06;;;;;;;6.05;2.63;;;;;;;18.76;68.54;101955.09;5030325;27;97621;-73
2023/09/15 01:07:34;;;;;;;8.13;2.60;;;;;;;18.69;68.74;101960.75;5027775;27;99379;-74
2023/09/15 01:10:01;;;;;;;7.10;2.75;;;;;;;18.65;68.52;101959.16;5030907;27;98546;-74
2023/09/15 01:12:27;;;;;;;17.52;2.67;;;;;;;18.56;69.23;101954.28;5030269;27;96924;-74
2023/09/15 01:14:54;;;;;;;6.97;3.35;;;;;;;18.74;68.84;101962.34;5030497;27;98824;-74
2023/09/15 01:17:26;;;;;;;7.00;3.30;;;;;;;18.71;68.46;101952.63;5029047;27;101315;-74
2023/09/15 01:20:09;;;;;;;5.80;2.90;;;;;;;18.65;68.63;101960.97;5029522;27;97049;-74
2023/09/15 01:23:08;;;;;;;4.72;2.40;;;;;;;18.76;68.30;101960.44;5027129;27;97535;-74
2023/09/15 01:25:56;;;;;;;6.22;2.50;;;;;;;18.73;68.21;101960.59;5024798;27;99294;-74
2023/09/15 01:28:54;;;;;;;6.18;2.40;;;;;;;18.65;68.61;101959.16;5029858;27;101684;-74
2023/09/15 01:31:23;;;;;;;5.93;2.28;;;;;;;18.50;68.89;101959.91;5028930;27;99055;-74
2023/09/15 01:33:50;;;;;;;4.03;2.20;;;;;;;18.60;68.59;101954.97;5030528;27;97648;-74
2023/09/15 01:36:16;;;;;;;4.43;2.25;;;;;;;18.85;67.64;101955.47;5029755;27;99282;-74
2023/09/15 01:38:43;;;;;;;3.58;2.53;;;;;;;18.91;66.73;101956.97;5029109;27;98740;-74
2023/09/15 01:41:09;;;;;;;3.58;2.05;;;;;;;18.66;67.28;101955.53;5027498;27;97579;-74
2023/09/15 01:43:35;;;;;;;4.97;2.40;;;;;;;18.84;66.77;101952.91;5029689;27;96954;-74
2023/09/15 01:46:02;;;;;;;2.97;2.38;;;;;;;18.80;67.18;101956.66;5030450;28;99825;-75
2023/09/15 01:48:31;;;;;;;5.10;2.63;;;;;;;18.82;67.33;101949.44;5028514;27;98316;-75
2023/09/15 01:50:58;;;;;;;2.85;2.03;;;;;;;18.77;68.54;101954.16;5029059;27;96954;-75
2023/09/15 01:53:25;;;;;;;6.20;2.50;;;;;;;18.80;68.39;101953.97;5029236;27;97629;-75
2023/09/15 01:55:52;;;;;;;7.10;2.40;;;;;;;18.65;68.18;101952.94;5030714;27;99470;-75
2023/09/15 01:58:19;;;;;;;3.13;2.20;;;;;;;18.61;69.11;101957.59;5029347;27;98954;-75
2023/09/15 02:00:46;;;;;;;5.18;2.40;;;;;;;18.69;69.43;101958.09;5030042;27;96780;-74
2023/09/15 02:03:12;;;;;;;7.30;2.58;;;;;;;18.35;70.97;101955.31;5030116;27;96968;-75
2023/09/15 02:05:40;;;;;;;5.45;2.47;;;;;;;18.62;69.89;101953.09;5033591;27;99367;-75
2023/09/15 02:08:06;;;;;;;4.38;2.47;;;;;;;18.48;70.42;101950.22;5031493;27;98336;-75
2023/09/15 02:10:33;;;;;;;4.38;2.22;;;;;;;18.44;70.54;101948.66;5032567;27;96937;-75
2023/09/15 02:12:59;;;;;;;3.88;2.20;;;;;;;18.38;70.63;101952.47;5032966;27;97100;-74
2023/09/15 02:15:25;;;;;;;5.97;3.30;;;;;;;18.22;71.40;101960.38;5034086;27;99143;-74
2023/09/15 02:17:52;;;;;;;7.05;2.40;;;;;;;18.17;71.71;101956.19;5033466;27;99001;-74
2023/09/15 02:20:19;;;;;;;4.40;2.58;;;;;;;18.35;70.78;101952.63;5033572;27;97938;-74
2023/09/15 02:22:47;;;;;;;5.35;2.25;;;;;;;18.23;71.38;101953.22;5031805;27;97490;-74
2023/09/15 02:25:13;;;;;;;5.13;2.42;;;;;;;18.12;71.49;101964.41;5032367;27;98854;-75
2023/09/15 02:27:40;;;;;;;4.78;2.53;;;;;;;18.17;71.66;101958.88;5032946;27;99359;-74
2023/09/15 02:30:07;;;;;;;3.45;2.20;;;;;;;18.13;71.87;101955.47;5032836;27;97196;-75
2023/09/15 02:32:34;;;;;;;5.32;2.92;;;;;;;18.00;72.37;101954.31;5031547;27;96830;-74
2023/09/15 02:35:01;;;;;;;5.47;2.60;;;;;;;18.13;71.45;101960.81;5032244;27;99415;-74
2023/09/15 02:37:27;;;;;;;7.18;3.30;;;;;;;18.18;71.31;101965.97;5033235;27;99190;-74
2023/09/15 02:39:55;;;;;;;6.40;2.50;;;;;;;18.28;70.70;101954.72;5032838;27;96807;-74
2023/09/15 02:42:22;;;;;;;3.50;2.47;;;;;;;18.28;70.63;101961.88;5032682;27;96844;-74
2023/09/15 02:44:48;;;;;;;4.15;2.45;;;;;;;18.37;70.40;101963.25;5031438;27;99280;-74
2023/09/15 02:47:14;;;;;;;3.75;2.97;;;;;;;18.33;70.11;101957.19;5033049;27;99064;-74
2023/09/15 02:49:41;;;;;;;6.07;2.60;;;;;;;18.46;70.04;101957.44;5033359;27;96800;-74
2023/09/15 02:52:07;;;;;;;7.18;2.80;;;;;;;18.21;70.97;101963.13;5030212;27;98599;-74
2023/09/15 02:54:34;;;;;;;5.32;2.58;;;;;;;18.34;70.73;101956.25;5031523;27;99105;-74
2023/09/15 02:57:02;;;;;;;5.80;3.28;;;;;;;18.42;70.59;101958.53;5031079;27;99146;-74
2023/09/15 02:59:29;;;;;;;12.02;3.25;;;;;;;18.34;71.28;101950.88;5032066;27;96797;-74
2023/09/15 03:01:55;;;;;;;6.10;2.63;;;;;;;18.26;71.07;101951.25;5031994;27;96766;-75
2023/09/15 03:04:21;;;;;;;5.60;3.10;;;;;;;18.46;70.71;101947.59;5032065;27;101948;-74
2023/09/15 03:06:48;;;;;;;3.03;2.65;;;;;;;18.34;71.05;101948.22;5033160;27;97596;-74
2023/09/15 03:09:14;;;;;;;6.75;3.08;;;;;;;18.37;71.15;101949.88;5032950;27;96754;-75
2023/09/15 03:11:41;;;;;;;6.85;3.22;;;;;;;18.49;70.89;101947.47;5031491;27;97049;-75
2023/09/15 03:14:09;;;;;;;7.47;3.33;;;;;;;18.37;70.76;101945.41;5027584;27;97976;-75
2023/09/15 03:16:35;;;;;;;5.68;2.78;;;;;;;18.51;70.29;101936.69;5032014;27;97353;-74
2023/09/15 03:19:03;;;;;;;5.15;2.75;;;;;;;18.46;70.77;101941.38;5033052;27;96725;-73
2023/09/15 03:21:30;;;;;;;5.97;3.35;;;;;;;18.18;71.31;101939.22;5033081;27;96836;-74
2023/09/15 03:23:56;;;;;;;7.45;3.00;;;;;;;18.23;71.38;101939.84;5033248;27;97809;-74
2023/09/15 03:26:23;;;;;;;4.40;2.92;;;;;;;18.36;71.09;101935.63;5031473;27;98810;-74
2023/09/15 03:28:50;;;;;;;5.05;3.22;;;;;;;18.16;72.15;101943.75;5027523;27;96745;-73
2023/09/15 03:31:18;;;;;;;6.63;3.20;;;;;;;18.13;72.47;101946.56;5031477;27;96999;-74
2023/09/15 03:33:44;;;;;;;7.00;3.55;;;;;;;18.33;71.20;101936.63;5030192;27;99140;-74
2023/09/15 03:36:11;;;;;;;5.63;3.20;;;;;;;18.29;70.66;101950.25;5031567;27;99205;-73
2023/09/15 03:38:37;;;;;;;6.15;3.45;;;;;;;18.42;70.23;101938.00;5032607;27;96790;-74
2023/09/15 03:41:05;;;;;;;8.95;3.60;;;;;;;18.31;69.91;101938.50;5031667;27;96838;-74
2023/09/15 03:43:32;;;;;;;10.38;3.50;;;;;;;18.52;68.89;101947.28;5032800;27;99223;-73
2023/09/15 03:45:59;;;;;;;6.85;3.78;;;;;;;18.62;68.34;101945.94;5030809;27;99947;-74
2023/09/15 03:48:27;;;;;;;7.05;3.30;;;;;;;18.40;69.28;101942.56;5032178;27;97517;-74
2023/09/15 03:50:55;;;;;;;6.60;3.30;;;;;;;18.22;69.49;101938.97;5029014;27;97826;-74
2023/09/15 03:53:21;;;;;;;4.47;3.38;;;;;;;18.44;69.19;101944.16;5032420;27;99659;-74
2023/09/15 03:55:48;;;;;;;4.40;2.90;;;;;;;18.67;68.32;101946.56;5033078;27;101057;-75
2023/09/15 03:58:15;;;;;;;6.85;3.47;;;;;;;18.77;67.57;101948.81;5031845;27;97020;-74
2023/09/15 04:00:43;;;;;;;7.55;3.13;;;;;;;18.65;68.66;101945.78;5032258;27;96977;-74
2023/09/15 04:03:09;;;;;;;10.55;4.15;;;;;;;18.57;68.46;101941.78;5029591;27;101021;-74
2023/09/15 04:05:38;;;;;;;8.60;3.65;;;;;;;18.44;68.87;101944.16;5031620;27;98809;-73
2023/09/15 04:08:04;;;;;;;5.22;3.40;;;;;;;18.59;68.72;101943.41;5030644;27;97085;-74
2023/09/15 04:10:31;;;;;;;5.82;3.15;;;;;;;18.50;68.67;101948.34;5031848;27;97813;-76
2023/09/15 04:12:57;;;;;;;9.13;4.18;;;;;;;18.36;69.80;101956.16;5028430;27;98995;-76
2023/09/15 04:15:24;;;;;;;5.10;3.00;;;;;;;18.41;70.27;101952.31;5031617;27;100075;-75
2023/09/15 04:17:50;;;;;;;5.32;3.08;;;;;;;18.17;71.98;101959.75;5030561;27;96763;-75
2023/09/15 04:20:17;;;;;;;9.73;3.10;;;;;;;18.05;72.38;101949.59;5028191;27;96771;-75
2023/09/15 04:22:45;;;;;;;5.55;3.08;;;;;;;18.30;71.43;101957.34;5032381;27;99231;-75
2023/09/15 04:25:12;;;;;;;8.80;3.47;;;;;;;18.28;71.44;101959.22;5036604;27;99373;-71
2023/09/15 04:27:39;;;;;;;5.95;3.20;;;;;;;18.11;72.07;101956.50;5030867;27;97657;-71
2023/09/15 04:30:07;;;;;;;6.35;3.33;;;;;;;18.10;72.33;101958.31;5031959;27;96812;-71
2023/09/15 04:32:33;;;;;;;6.72;3.50;;;;;;;18.14;71.74;101964.34;5029844;27;99239;-72
2023/09/15 04:34:59;;;;;;;10.88;4.25;;;;;;;17.99;72.64;101957.06;5030048;27;102188;-73
2023/09/15 04:37:26;;;;;;;6.35;3.22;;;;;;;18.11;72.80;101961.84;5030771;27;96717;-71
2023/09/15 04:39:54;;;;;;;6.22;3.33;;;;;;;18.16;72.29;101959.81;5031079;27;96857;-71
2023/09/15 04:42:21;;;;;;;5.40;3.45;;;;;;;18.09;72.53;101963.72;5031005;27;97798;-72
2023/09/15 04:44:47;;;;;;;6.05;3.70;;;;;;;18.02;72.61;101967.63;5031343;28;99405;-71
2023/09/15 04:47:14;;;;;;;7.50;3.30;;;;;;;18.04;72.90;101961.28;5031624;27;97145;-71
2023/09/15 04:49:40;;;;;;;6.68;3.83;;;;;;;18.02;72.71;101960.47;5029218;27;96957;-71
2023/09/15 04:52:07;;;;;;;8.05;5.22;;;;;;;18.07;72.58;101961.09;5029680;27;99082;-75
2023/09/15 04:54:34;;;;;;;6.78;3.67;;;;;;;17.99;73.78;101968.63;5031927;27;99103;-71
2023/09/15 04:57:01;;;;;;;5.28;3.58;;;;;;;17.98;73.91;101966.03;5028871;27;97076;-71
2023/09/15 04:59:28;;;;;;;6.45;3.58;;;;;;;17.89;74.38;101970.88;5030753;27;96927;-72
2023/09/15 05:01:54;;;;;;;5.97;3.83;;;;;;;17.89;74.31;101965.53;5028747;27;98937;-75
2023/09/15 05:04:21;;;;;;;14.23;7.57;;;;;;;17.87;74.39;101966.53;5032012;27;102052;-75
2023/09/15 05:06:49;;;;;;;5.65;3.83;;;;;;;17.84;74.49;101970.22;5031165;27;100895;-74
2023/09/15 05:09:20;;;;;;;6.68;3.67;;;;;;;17.85;74.88;101966.59;5031435;27;96883;-74
2023/09/15 05:11:46;;;;;;;12.02;4.10;;;;;;;18.17;72.88;101965.09;5030414;27;99816;-75
2023/09/15 05:14:14;;;;;;;5.97;3.58;;;;;;;18.02;73.54;101963.13;5030454;27;100963;-75
2023/09/15 05:16:41;;;;;;;7.35;3.80;;;;;;;18.23;72.47;101969.28;5029775;27;97107;-74
2023/09/15 05:19:07;;;;;;;7.15;3.78;;;;;;;18.36;71.53;101965.06;5027821;27;97469;-74
2023/09/15 05:21:33;;;;;;;8.00;3.50;;;;;;;18.46;71.35;101971.69;5030274;27;98224;-74
2023/09/15 05:24:00;;;;;;;8.73;3.90;;;;;;;18.50;71.01;101969.75;5028616;27;99467;-74
2023/09/15 05:26:26;;;;;;;9.05;4.05;;;;;;;18.80;69.87;101972.72;5028745;27;96995;-75
2023/09/15 05:28:53;;;;;;;6.78;4.05;;;;;;;18.82;68.94;101970.84;5030428;27;96883;-74
2023/09/15 05:31:25;;;;;;;7.18;3.63;;;;;;;18.65;69.23;101975.22;5030246;27;99632;-75
2023/09/15 05:33:52;;;;;;;11.65;4.18;;;;;;;18.95;68.57;101980.00;5029561;27;99540;-74
2023/09/15 05:36:18;;;;;;;9.15;4.20;;;;;;;18.96;68.71;101976.38;5030607;27;96826;-74
2023/09/15 05:38:45;;;;;;;5.57;3.78;;;;;;;18.93;68.03;101977.38;5029371;27;96763;-75
2023/09/15 05:41:12;;;;;;;4.68;3.50;;;;;;;18.89;68.34;101969.59;5029240;27;99269;-75
2023/09/15 05:43:39;;;;;;;9.13;3.67;;;;;;;19.26;67.16;101974.78;5028113;27;99077;-75
2023/09/15 05:46:06;;;;;;;7.18;4.50;;;;;;;19.24;66.97;101976.66;5026798;27;98593;-74
2023/09/15 05:48:34;;;;;;;10.13;4.10;;;;;;;19.19;66.93;101975.19;5031305;27;96805;-74
2023/09/15 05:51:10;;;;;;;6.78;3.65;;;;;;;19.36;66.17;101978.69;5032750;27;99309;-75
2023/09/15 05:53:37;;;;;;;9.15;3.90;;;;;;;19.53;65.96;101977.84;5029157;28;99410;-71
2023/09/15 05:56:04;;;;;;;9.98;4.00;;;;;;;19.34;66.91;101985.09;5028156;28;98448;-71
2023/09/15 05:58:31;;;;;;;9.38;4.57;;;;;;;19.65;65.95;101987.06;5029419;27;98768;-72
2023/09/15 06:00:57;;;;;;;10.30;4.88;;;;;;;19.70;65.43;101984.97;5028728;27;97985;-75
2023/09/15 06:03:24;;;;;;;18.33;7.50;;;;;;;19.76;65.12;101977.47;5030629;27;98340;-75
2023/09/15 06:05:52;;;;;;;11.70;4.28;;;;;;;19.99;64.29;101986.09;5029662;27;96654;-74
2023/09/15 06:08:19;;;;;;;12.68;4.35;;;;;;;20.10;63.64;101979.16;5029690;28;96862;-75
2023/09/15 06:10:45;;;;;;;11.45;4.03;;;;;;;20.15;63.72;101982.44;5025787;27;97771;-74
2023/09/15 06:13:12;;;;;;;7.10;3.58;;;;;;;20.16;63.22;101978.81;5030014;27;98840;-74
2023/09/15 06:15:39;;;;;;;9.07;3.47;;;;;;;20.33;63.17;101988.66;5023422;27;97152;-71
2023/09/15 06:18:05;;;;;;;9.93;4.22;;;;;;;20.48;62.42;101982.38;5029424;27;96990;-71
2023/09/15 06:20:33;;;;;;;7.78;4.00;;;;;;;20.35;62.61;101985.91;5027929;28;99077;-73
2023/09/15 06:23:01;;;;;;;8.88;3.85;;;;;;;20.62;61.96;101986.97;5029021;27;98084;-75
2023/09/15 06:25:27;;;;;;;8.70;4.13;;;;;;;20.74;61.77;101978.22;5023498;27;96928;-75
2023/09/15 06:27:54;;;;;;;7.30;3.90;;;;;;;20.73;61.76;101971.13;5030840;27;96807;-75
2023/09/15 06:30:20;;;;;;;7.03;3.25;;;;;;;20.88;61.09;101985.44;5030497;28;98890;-75
2023/09/15 06:32:47;;;;;;;5.60;3.67;;;;;;;20.85;61.10;101980.28;5028688;27;99030;-75
2023/09/15 06:35:14;;;;;;;11.63;3.70;;;;;;;20.87;60.42;101983.75;5025032;27;98088;-74
2023/09/15 06:37:40;;;;;;;9.02;3.67;;;;;;;20.84;61.03;101981.22;5029186;27;97544;-74
2023/09/15 06:40:10;;;;;;;10.20;3.90;;;;;;;20.78;60.60;101985.13;5027651;27;99128;-74
2023/09/15 06:42:37;;;;;;;7.85;4.13;;;;;;;21.04;60.03;101989.84;5029173;27;99976;-75
2023/09/15 06:45:04;;;;;;;7.78;4.35;;;;;;;21.01;60.03;101987.31;5024597;28;96816;-74
2023/09/15 06:47:34;;;;;;;12.55;4.05;;;;;;;21.67;57.76;101991.41;5027711;28;97526;-74
2023/09/15 06:50:07;;;;;;;12.55;4.53;;;;;;;21.62;58.17;101994.38;5029751;27;99285;-76
2023/09/15 06:52:33;;;;;;;7.40;4.28;;;;;;;21.56;58.01;101992.06;5027669;27;97657;-74
2023/09/15 06:55:00;;;;;;;9.82;3.88;;;;;;;21.74;57.27;101996.31;5033152;28;97264;-75
2023/09/15 06:57:28;;;;;;;9.95;4.20;;;;;;;21.77;57.25;101997.94;5034148;27;97974;-75
2023/09/15 06:59:55;;;;;;;6.20;3.92;;;;;;;22.00;56.57;101988.44;5033118;28;99248;-75
2023/09/15 07:02:21;;;;;;;7.18;3.45;;;;;;;22.20;55.62;101990.72;5033689;27;98193;-71
2023/09/15 07:04:48;;;;;;;6.38;3.63;;;;;;;21.97;56.58;101984.13;5034281;27;97327;-72
2023/09/15 07:07:14;;;;;;;11.60;4.30;;;;;;;22.04;56.86;101992.69;5027359;27;97664;-73
2023/09/15 07:09:44;;;;;;;8.20;3.70;;;;;;;22.53;54.68;101988.53;5027097;27;97883;-74
2023/09/15 07:12:10;;;;;;;12.18;3.92;;;;;;;22.39;55.15;101985.88;5028157;27;99715;-75
2023/09/15 07:14:38;;;;;;;12.85;3.95;;;;;;;22.45;54.64;101976.56;5028087;27;96819;-75
2023/09/15 07:17:05;;;;;;;7.43;4.30;;;;;;;22.50;54.47;101977.97;5029872;27;98928;-73
2023/09/15 07:19:31;;;;;;;10.75;3.95;;;;;;;22.55;54.07;101981.22;5031151;27;100151;-73
2023/09/15 07:21:58;;;;;;;7.90;4.22;;;;;;;22.68;53.69;101983.97;5029755;27;97628;-71
2023/09/15 07:24:24;;;;;;;8.32;4.13;;;;;;;22.52;54.19;101978.72;5034433;28;96849;-73
2023/09/15 07:26:50;;;;;;;8.13;3.55;;;;;;;22.55;54.13;101981.22;5027966;27;97138;-71
2023/09/15 07:29:17;;;;;;;18.08;4.35;;;;;;;22.76;53.31;101984.34;5031004;27;102454;-71
2023/09/15 07:31:45;;;;;;;11.70;4.18;;;;;;;22.80;53.17;101983.16;5031256;27;97580;-73
2023/09/15 07:34:12;;;;;;;8.73;4.72;;;;;;;22.87;52.98;101986.31;5031405;27;96721;-72
2023/09/15 07:36:38;;;;;;;9.05;4.28;;;;;;;22.91;52.98;101987.81;5031341;27;99033;-71
2023/09/15 07:39:05;;;;;;;8.82;3.55;;;;;;;22.74;52.48;101990.78;5029573;27;99445;-71
2023/09/15 07:41:32;;;;;;;6.35;3.80;;;;;;;22.77;52.77;101979.81;5031090;27;98923;-71
2023/09/15 07:44:00;;;;;;;9.10;3.97;;;;;;;22.78;52.49;101986.91;5031065;27;98918;-71
2023/09/15 07:46:27;;;;;;;16.77;4.30;;;;;;;23.12;51.92;101978.28;5033137;27;97063;-71
2023/09/15 07:48:55;;;;;;;10.88;3.72;;;;;;;23.04;51.91;101981.50;5029053;27;99026;-71
2023/09/15 07:51:21;;;;;;;7.40;3.90;;;;;;;23.48;50.45;101984.84;5031252;27;99290;-71
2023/09/15 07:53:48;;;;;;;5.15;3.72;;;;;;;23.69;49.71;101986.03;5031027;27;97036;-72
2023/09/15 07:56:14;;;;;;;8.60;3.78;;;;;;;23.72;49.41;101985.78;5032266;27;97434;-72
2023/09/15 07:58:50;;;;;;;11.00;4.45;;;;;;;23.69;49.36;101986.03;5033478;27;98899;-74
2023/09/15 08:01:19;;;;;;;8.82;4.00;;;;;;;23.79;48.97;101981.69;5034170;27;100907;-76
2023/09/15 08:03:46;;;;;;;7.88;3.67;;;;;;;23.94;48.89;101991.38;5021177;27;98543;-74
2023/09/15 08:06:14;;;;;;;4.70;3.17;;;;;;;24.14;48.10;101987.25;5027975;27;97479;-74
2023/09/15 08:08:42;;;;;;;9.35;3.88;;;;;;;23.97;48.38;101991.16;5028390;27;99004;-74
2023/09/15 08:11:09;;;;;;;9.70;3.45;;;;;;;24.19;48.03;101987.78;5027384;27;100762;-74
2023/09/15 08:13:35;;;;;;;9.13;4.47;;;;;;;24.48;47.78;101993.75;5031470;27;96895;-74
2023/09/15 08:16:01;;;;;;;12.02;4.00;;;;;;;24.56;46.90;101983.22;5019286;27;97521;-73
2023/09/15 08:18:28;;;;;;;11.25;4.35;;;;;;;24.32;47.22;101985.06;5027904;27;98989;-74
2023/09/15 08:20:54;;;;;;;8.38;4.10;;;;;;;24.39;47.38;101980.94;5028287;27;101127;-74
2023/09/15 08:23:22;;;;;;;7.07;4.05;;;;;;;24.51;47.30;101978.19;5029046;28;97130;-75
2023/09/15 08:25:49;;;;;;;9.60;3.88;;;;;;;24.90;46.58;101978.88;5029549;27;97169;-75
2023/09/15 08:28:16;;;;;;;10.65;4.72;;;;;;;24.77;45.89;101973.50;5027586;27;98765;-74
2023/09/15 08:30:44;;;;;;;6.65;4.07;;;;;;;24.73;45.92;101968.47;5026498;27;97701;-75
2023/09/15 08:33:10;;;;;;;10.00;3.83;;;;;;;24.91;45.83;101972.50;5027372;27;96796;-74
2023/09/15 08:35:37;;;;;;;11.70;4.28;;;;;;;24.77;46.36;101976.22;5032583;27;96918;-75
2023/09/15 08:38:04;;;;;;;12.88;4.20;;;;;;;25.18;45.31;101964.97;5027136;27;97103;-75
2023/09/15 08:40:37;;;;;;;9.15;4.40;;;;;;;25.05;45.31;101961.47;5033259;27;97971;-74
2023/09/15 08:43:05;;;;;;;6.65;3.40;;;;;;;25.41;45.15;101965.84;5026370;27;97931;-74
2023/09/15 08:45:33;;;;;;;7.53;3.47;;;;;;;25.43;45.26;101963.91;5024112;27;97795;-75
2023/09/15 08:48:03;;;;;;;13.73;3.90;;;;;;;25.62;44.88;101964.19;5028768;27;99590;-75
2023/09/15 08:50:33;;;;;;;5.63;3.55;;;;;;;25.52;44.31;101960.47;5033947;27;98870;-75
2023/09/15 08:53:00;;;;;;;9.15;3.25;;;;;;;25.23;45.18;101961.88;5028904;27;96805;-75
2023/09/15 08:55:27;;;;;;;12.25;3.80;;;;;;;25.50;45.01;101957.03;5028473;27;97005;-73
2023/09/15 08:57:56;;;;;;;7.22;3.67;;;;;;;25.68;44.11;101958.28;5021817;27;98421;-73
2023/09/15 09:00:23;;;;;;;10.15;3.88;;;;;;;25.43;45.35;101958.47;5025356;27;98817;-75
2023/09/15 09:02:51;;;;;;;9.00;4.97;;;;;;;25.83;44.55;101955.34;5024013;27;96889;-75
2023/09/15 09:05:18;;;;;;;6.22;3.45;;;;;;;26.00;43.62;101955.69;5028837;27;97080;-76
2023/09/15 09:07:45;;;;;;;6.47;3.05;;;;;;;26.03;43.06;101951.88;5024479;27;99364;-74
2023/09/15 09:10:12;;;;;;;5.82;3.20;;;;;;;25.86;42.87;101950.56;5027250;27;98828;-75
2023/09/15 09:12:38;;;;;;;10.43;3.17;;;;;;;25.91;42.31;101958.28;5024816;27;96824;-74
2023/09/15 09:15:07;;;;;;;13.32;3.38;;;;;;;25.96;42.45;101956.06;5026118;27;96903;-74
2023/09/15 09:17:33;;;;;;;6.88;2.85;;;;;;;25.68;42.48;101952.88;5027457;27;97846;-75
2023/09/15 09:20:00;;;;;;;4.65;2.72;;;;;;;26.20;42.40;101964.88;5027153;27;98873;-75
2023/09/15 09:22:26;;;;;;;9.27;3.25;;;;;;;25.97;41.99;101957.78;5024263;27;97427;-75
2023/09/15 09:24:58;;;;;;;4.68;2.92;;;;;;;26.24;41.07;101954.69;5024114;27;97324;-75
2023/09/15 09:27:31;;;;;;;8.10;3.35;;;;;;;26.25;41.22;101956.44;5028160;28;98204;-75
2023/09/15 09:29:58;;;;;;;8.18;3.15;;;;;;;25.77;42.01;101946.72;5029257;28;99294;-75
2023/09/15 09:32:25;;;;;;;5.68;2.85;;;;;;;26.41;41.46;101951.44;5027164;27;96764;-74
2023/09/15 09:34:53;;;;;;;6.57;2.83;;;;;;;26.27;41.43;101944.47;5027532;27;98521;-74
2023/09/15 09:37:25;;;;;;;5.72;2.65;;;;;;;26.10;40.19;101944.97;5021884;27;99030;-74
2023/09/15 09:39:53;;;;;;;4.57;2.53;;;;;;;26.19;39.60;101936.94;5027962;27;98411;-76
2023/09/15 09:42:22;;;;;;;15.30;2.60;;;;;;;26.30;39.34;101938.81;5028213;27;96962;-75
2023/09/15 09:44:48;;;;;;;4.07;2.15;;;;;;;26.01;40.33;101943.88;5029600;27;96980;-75
2023/09/15 09:47:15;;;;;;;5.93;2.40;;;;;;;26.16;39.87;101939.06;5029438;27;99038;-75
2023/09/15 09:49:42;;;;;;;7.00;2.35;;;;;;;25.97;39.80;101936.13;5031515;27;98823;-76
2023/09/15 09:52:09;;;;;;;10.02;3.00;;;;;;;26.42;39.62;101939.63;5030294;27;96898;-74
2023/09/15 09:54:36;;;;;;;9.75;2.97;;;;;;;26.10;39.67;101940.41;5030080;28;97030;-75
2023/09/15 09:57:03;;;;;;;14.35;2.67;;;;;;;26.07;40.16;101937.94;5029510;27;99780;-75
2023/09/15 09:59:36;;;;;;;6.05;2.03;;;;;;;26.41;39.33;101933.34;5016171;27;98865;-73
2023/09/15 10:02:03;;;;;;;7.25;2.40;;;;;;;26.47;38.86;101927.41;5025930;27;98838;-74
2023/09/15 10:04:29;;;;;;;5.30;1.90;;;;;;;26.57;38.53;101922.09;5027402;27;98055;-75
2023/09/15 10:06:57;;;;;;;4.63;2.05;;;;;;;26.48;38.51;101921.00;5024301;27;99316;-74
2023/09/15 10:09:24;;;;;;;5.63;2.00;;;;;;;26.52;38.12;101922.47;5022452;27;101158;-74
2023/09/15 10:11:53;;;;;;;9.50;2.10;;;;;;;26.44;36.86;101922.25;5024283;27;97632;-76
2023/09/15 10:14:21;;;;;;;4.50;1.80;;;;;;;26.25;37.29;101908.53;5025503;27;96993;-75
2023/09/15 10:16:48;;;;;;;7.40;2.30;;;;;;;26.25;38.20;101915.81;5023912;27;99071;-75
2023/09/15 10:19:16;;;;;;;2.60;2.05;;;;;;;26.31;38.00;101913.44;5021585;27;98849;-75
2023/09/15 10:21:43;;;;;;;2.25;1.73;;;;;;;25.89;37.85;101900.69;5025554;27;97243;-76
2023/09/15 10:24:12;;;;;;;3.88;2.15;;;;;;;25.98;37.88;101906.22;5026567;27;97048;-74
2023/09/15 10:26:41;;;;;;;10.13;2.38;;;;;;;26.09;37.62;101898.06;5028152;27;99297;-75
2023/09/15 10:29:08;;;;;;;5.22;2.08;;;;;;;25.67;37.60;101906.97;5028939;27;101822;-75
2023/09/15 10:31:35;;;;;;;4.97;2.55;;;;;;;25.61;37.10;101897.50;5031193;27;96940;-75
2023/09/15 10:34:02;;;;;;;7.38;2.00;;;;;;;25.99;37.55;101891.66;5031540;27;97172;-76
2023/09/15 10:36:29;;;;;;;4.43;1.80;;;;;;;26.10;36.90;101896.22;5030169;27;102269;-75
2023/09/15 10:38:57;;;;;;;5.38;2.20;;;;;;;26.32;37.34;101901.59;5031054;27;98659;-74
2023/09/15 10:41:29;;;;;;;11.25;2.67;;;;;;;26.19;36.81;101885.47;5026052;27;97721;-75
2023/09/15 10:43:56;;;;;;;6.75;2.13;;;;;;;26.04;37.38;101885.91;5026160;27;96826;-77
2023/09/15 10:46:22;;;;;;;6.22;2.60;;;;;;;26.07;36.91;101881.06;5024163;27;99392;-74
2023/09/15 10:48:51;;;;;;;5.13;3.20;;;;;;;25.95;37.29;101882.09;5022909;27;98986;-76
2023/09/15 10:51:19;;;;;;;4.25;2.47;;;;;;;25.84;38.18;101876.69;5026434;27;100967;-74
2023/09/15 10:53:47;;;;;;;3.78;1.92;;;;;;;25.92;38.58;101881.50;5028825;27;97198;-74
2023/09/15 10:56:15;;;;;;;3.75;2.40;;;;;;;25.83;37.89;101868.69;5030005;27;99160;-73
2023/09/15 10:58:43;;;;;;;3.35;2.05;;;;;;;25.87;37.83;101856.63;5035774;27;98827;-74
2023/09/15 11:01:11;;;;;;;4.47;2.85;;;;;;;26.13;38.08;101866.16;5031372;27;98007;-76
2023/09/15 11:03:38;;;;;;;6.82;2.65;;;;;;;26.32;37.81;101865.53;5028808;27;97207;-75
2023/09/15 11:06:09;;;;;;;5.82;2.90;;;;;;;26.25;38.16;101854.34;5032435;27;98989;-75
2023/09/15 11:08:36;;;;;;;6.72;2.72;;;;;;;26.40;38.43;101849.47;5031205;27;99327;-75
2023/09/15 11:11:04;;;;;;;7.72;3.00;;;;;;;26.31;38.77;101851.13;5024346;27;98629;-74
2023/09/15 11:13:31;;;;;;;5.60;2.55;;;;;;;26.26;37.25;101850.63;5029903;27;97030;-76
2023/09/15 11:15:59;;;;;;;6.18;2.72;;;;;;;26.26;37.46;101849.75;5030864;27;99029;-74
2023/09/15 11:18:25;;;;;;;5.47;3.03;;;;;;;26.46;37.69;101855.22;5029637;27;101081;-75
2023/09/15 11:20:51;;;;;;;7.13;2.47;;;;;;;26.51;37.43;101853.00;5028863;27;97372;-75
2023/09/15 11:23:18;;;;;;;3.67;2.40;;;;;;;26.50;37.79;101854.00;5028950;28;96749;-77
2023/09/15 11:25:44;;;;;;;5.50;2.47;;;;;;;26.46;37.51;101852.50;5029518;27;98828;-75